Terminal Aerodrome Forecast
Issued by NWS

Home | Current Version | Previous Version | Text Only | Print | Product List | Glossary On
Versions: 1 2 3 4 5 6 7 8 9 10 11 12 13 14 15 16 17 18 19 20 21 22 23 24 25 26 27 28 29 30 31 32 33 34 35 36 37 38 39 40 41 42 43 44 45 46 47 48 49 50
442
FTUS41 KCTP 300533
TAFUNV
TAF
KUNV 300533Z 3006/3106 VRB03KT P6SM SCT100
     FM300900 VRB03KT 5SM BR SCT100
     FM301300 07002KT 6SM HZ SCT050 BKN100
     FM301600 07005KT 6SM HZ VCSH BKN050 OVC100
     FM301900 13005KT 5SM -SHRA BR VCTS OVC040CB
     FM310200 23004KT 3SM BR VCSH OVC020=

USA.gov is the U.S. government's official web portal to all federal, state and local government web resources and services.